KMIB/MIB METAR and TAF weather

Enter ICAO airport designator
Station Type Date Time Source
KMIB METAR 2020/04/05 16:56 UTC NOAA

KMIB 051656Z 03007KT 3SM BR OVC002 M02/M02 A2996 RMK SLP173 T10161019 $


Station Type Date Time Source
KMIB Decoded METAR 2020/04/05 16:56 UTC NOAA

Minot Air Force Base, ND, United States (KMIB) 48-25N 101-21W
Apr 05, 2020 - 12:56 PM EDT / 2020.04.05 1656 UTC
Wind: from the NNE (030 degrees) at 8 MPH (7 KT):0
Visibility: 3 mile(s):0
Sky conditions: overcast
Weather: mist
Temperature: 29.1 F (-1.6 C)
Windchill: 21 F (-6 C):1
Dew Point: 28.6 F (-1.9 C)
Relative Humidity: 97%
Pressure (altimeter): 29.96 in. Hg (1014 hPa)
ob: KMIB 051656Z 03007KT 3SM BR OVC002 M02/M02 A2996 RMK SLP173 T10161019
cycle: 17

Station Type Date Time Source
KMIB TAF 2020/04/03 17:57 UTC NOAA

TAF KMIB 031700Z 0317/0423 27009KT 9999 SKC QNH2990INS
BECMG 0417/0418 16012G18KT 9999 SCT030 QNH2984INS TXM01/0322Z TNM10/0411Z LAST NO
AMDS AFT 0323 NEXT 0609

Example: see airport list